首页
METAR-TAF:

METAR-TAF

机场 :

雅典埃莱夫塞里奥斯·韦尼泽洛斯国际机场

雅典, 希腊

纬度: 37-56N, 经度: 023-56E, 海拔: 94米

当前天气观测

该预报发布于24分钟前的08:20 UTC
风速11节,风向,在西转西北东北之间变化
温度 30°C
湿度 35%
气压 1012 hPa
能见度10公里或以上
1500米以下无云,无积雨云

METAR: LGAV 140820Z 36011KT 290V040 CAVOK 30/13 Q1012 NOSIG

时间: 11:44 (08:44 UTC)

预报

该预报发布于3小时和44分钟前的05:00 UTC
预报有效从14日的 06点(UTC)到 15日的 06点(UTC)
风速16节,风向东北
能见度10公里或以上
少量云层高于2500英尺
短暂存在
从 14日的 10点(UTC)到 14日的 15点(UTC)
风速16节,风向东北,有时为26节阵风
成为
从 14日的 18点(UTC)到 14日的 20点(UTC)
风速6节,风向北转西北
成为
从 15日的 04点(UTC)到 15日的 06点(UTC)
风速12节,风向北转东北

TAF: LGAV 140500Z 1406/1506 04016KT 9999 FEW025 TEMPO 1410/1415 05016G26KT BECMG 1418/1420 33006KT BECMG 1504/1506 03012KT

超过4000个机场的气象观测和天气预报(METAR&TAF报告)。

可查询的气象台以黄色和红色小点在地图上表示。

将鼠标移到小点上方,可查看气象台名称。

然后点击查看天气观测和预报。

如需切换地图:点击带黑十字的绿色按钮放大地图;点击带横线的绿色按钮缩小地图;或者点击绿色箭头查看邻近地区的地图。


METAR-TAF: